createdAt,value
2022-11-14T00:01:51.170Z,15.27
2022-11-14T00:07:14.354Z,15.45
2022-11-14T00:12:36.433Z,14.65
2022-11-14T00:17:58.053Z,14.68
2022-11-14T00:23:22.053Z,15.07
2022-11-14T00:28:43.952Z,13.82
2022-11-14T00:34:05.743Z,14.02
2022-11-14T00:39:30.788Z,13.45
2022-11-14T00:44:52.753Z,13.45
2022-11-14T00:50:14.470Z,12.60
2022-11-14T00:55:37.660Z,12.60
2022-11-14T01:00:59.572Z,12.85
2022-11-14T01:06:21.926Z,12.23
2022-11-14T01:11:45.485Z,12.18
2022-11-14T01:17:07.163Z,12.55
2022-11-14T01:22:30.763Z,12.75
2022-11-14T01:27:54.154Z,11.45
2022-11-14T01:33:15.855Z,12.35
2022-11-14T01:38:37.976Z,12.00
2022-11-14T01:44:01.373Z,12.13
2022-11-14T01:49:26.851Z,11.63
2022-11-14T01:54:52.283Z,12.40
2022-11-14T02:00:16.823Z,11.95
2022-11-14T02:05:39.167Z,11.07
2022-11-14T02:11:00.963Z,11.45
2022-11-14T02:16:24.080Z,11.70
2022-11-14T02:21:47.320Z,9.90
2022-11-14T02:27:10.429Z,9.75
2022-11-14T02:32:45.014Z,10.07
2022-11-14T02:38:15.610Z,9.90
2022-11-14T02:43:37.717Z,10.20
2022-11-14T02:48:59.708Z,8.85
2022-11-14T02:54:23.278Z,10.10
2022-11-14T02:59:44.970Z,10.32
2022-11-14T03:05:07.798Z,9.15
2022-11-14T03:10:31.738Z,9.75
2022-11-14T03:15:53.721Z,9.40
2022-11-14T03:21:18.156Z,10.75
2022-11-14T03:26:41.358Z,10.43
2022-11-14T03:32:02.983Z,10.43
2022-11-14T03:37:24.638Z,10.02
2022-11-14T03:42:47.870Z,11.20
2022-11-14T03:48:09.787Z,11.82
2022-11-14T03:53:31.825Z,10.02
2022-11-14T03:58:55.046Z,9.77
2022-11-14T04:04:16.959Z,10.02
2022-11-14T04:09:39.379Z,8.65
2022-11-14T04:15:02.791Z,9.38
2022-11-14T04:20:24.421Z,10.77
2022-11-14T04:25:47.286Z,8.90
2022-11-14T04:31:10.607Z,9.65
2022-11-14T04:36:32.600Z,9.77
2022-11-14T04:41:54.276Z,10.30
2022-11-14T04:47:17.256Z,10.55
2022-11-14T04:52:39.025Z,9.80
2022-11-14T04:58:00.771Z,10.05
2022-11-14T05:03:23.779Z,10.23
2022-11-14T05:08:45.551Z,10.07
2022-11-14T05:14:07.361Z,10.45
2022-11-14T05:19:30.609Z,16.42
2022-11-14T05:24:52.465Z,12.57
2022-11-14T05:30:14.668Z,11.85
2022-11-14T05:35:37.826Z,10.55
2022-11-14T05:40:59.860Z,11.10
2022-11-14T05:46:21.846Z,10.50
2022-11-14T05:51:44.955Z,11.45
2022-11-14T05:57:06.952Z,10.75
2022-11-14T06:02:28.945Z,11.98
2022-11-14T06:07:58.013Z,10.77
2022-11-14T06:13:19.762Z,9.90
2022-11-14T06:18:42.234Z,9.82
2022-11-14T06:24:06.250Z,9.65
2022-11-14T06:29:34.172Z,10.52
2022-11-14T06:34:58.045Z,11.57
2022-11-14T06:40:21.506Z,9.68
2022-11-14T06:45:43.400Z,10.75
2022-11-14T06:51:06.645Z,9.50
2022-11-14T06:56:29.775Z,9.77
2022-11-14T07:01:51.610Z,10.38
2022-11-14T07:07:13.540Z,9.60
2022-11-14T07:12:36.407Z,11.93
2022-11-14T07:17:59.674Z,10.68
2022-11-14T07:23:22.962Z,9.80
2022-11-14T07:28:52.282Z,10.00
2022-11-14T07:34:14.849Z,9.77
2022-11-14T07:39:36.583Z,10.50
2022-11-14T07:44:59.636Z,11.10
2022-11-14T07:50:21.305Z,10.00
2022-11-14T07:55:43.122Z,11.23
2022-11-14T08:01:07.902Z,11.57
2022-11-14T08:06:30.100Z,10.43
2022-11-14T08:11:52.017Z,10.82
2022-11-14T08:17:15.237Z,11.48
2022-11-14T08:22:36.934Z,10.07
2022-11-14T08:27:58.706Z,10.77
2022-11-14T08:33:22.028Z,10.80
2022-11-14T08:38:43.758Z,10.85
2022-11-14T08:44:05.848Z,9.27
2022-11-14T08:49:29.404Z,9.45
2022-11-14T08:54:51.358Z,9.70
2022-11-14T09:00:13.920Z,10.63
2022-11-14T09:05:37.481Z,10.60
2022-11-14T09:11:05.374Z,10.23
2022-11-14T09:16:27.973Z,10.13
2022-11-14T09:21:51.052Z,10.60
2022-11-14T09:27:12.775Z,9.68
2022-11-14T09:32:34.569Z,9.63
2022-11-14T09:38:05.854Z,10.43
2022-11-14T09:43:42.658Z,9.18
2022-11-14T09:49:04.651Z,10.68
2022-11-14T09:54:30.310Z,10.55
2022-11-14T09:59:52.483Z,9.52
2022-11-14T10:05:40.847Z,10.55
2022-11-14T10:11:08.814Z,9.25
2022-11-14T10:16:41.771Z,8.80
2022-11-14T10:22:17.214Z,10.25
2022-11-14T10:27:51.249Z,11.10
2022-11-14T10:33:31.448Z,9.95
2022-11-14T10:39:01.729Z,8.80
2022-11-14T10:44:30.915Z,9.18
2022-11-14T10:49:57.002Z,9.50
2022-11-14T10:55:31.992Z,8.27
2022-11-14T11:01:36.163Z,8.82
2022-11-14T11:06:59.781Z,8.45
2022-11-14T11:12:24.535Z,8.07
2022-11-14T11:17:57.370Z,9.35
2022-11-14T11:23:23.038Z,7.82
2022-11-14T11:28:44.927Z,8.15
2022-11-14T11:34:10.272Z,8.02
2022-11-14T11:39:36.801Z,7.65
2022-11-14T11:45:04.324Z,8.25
2022-11-14T11:50:27.624Z,8.52
2022-11-14T11:55:52.901Z,7.40
2022-11-14T12:01:15.824Z,8.05
2022-11-14T12:06:46.017Z,8.65
2022-11-14T12:12:16.259Z,9.05
2022-11-14T12:18:04.589Z,8.15
2022-11-14T12:23:58.056Z,8.68
2022-11-14T12:29:42.223Z,8.43
2022-11-14T12:35:08.016Z,8.10
2022-11-14T12:40:34.527Z,7.45
2022-11-14T12:46:02.059Z,7.62
2022-11-14T12:51:52.341Z,7.05
2022-11-14T12:57:44.463Z,7.35
2022-11-14T13:03:27.808Z,7.12
2022-11-14T13:09:36.170Z,7.80
2022-11-14T13:15:49.314Z,7.57
2022-11-14T13:21:44.796Z,7.28
2022-11-14T13:27:45.151Z,7.85
2022-11-14T13:33:09.064Z,8.10
2022-11-14T13:39:06.783Z,8.25
2022-11-14T13:50:06.410Z,8.18
2022-11-14T13:55:38.565Z,8.30
2022-11-14T14:01:14.934Z,7.78
2022-11-14T14:06:52.222Z,7.30
2022-11-14T14:12:37.134Z,6.60
2022-11-14T14:18:09.903Z,7.62
2022-11-14T14:23:43.178Z,7.20
2022-11-14T14:29:15.810Z,7.03
2022-11-14T14:34:37.808Z,7.93
2022-11-14T14:40:02.764Z,9.38
2022-11-14T14:45:26.927Z,9.68
2022-11-14T14:50:50.822Z,10.90
2022-11-14T14:56:21.891Z,10.80
2022-11-14T15:01:44.854Z,11.88
2022-11-14T15:07:06.682Z,11.23
2022-11-14T15:12:31.759Z,11.30
2022-11-14T15:17:56.109Z,11.23
2022-11-14T15:23:20.860Z,11.73
2022-11-14T15:28:44.417Z,11.73
2022-11-14T15:34:22.016Z,12.25
2022-11-14T15:39:44.987Z,17.73
2022-11-14T15:50:36.261Z,13.10
2022-11-14T15:55:58.887Z,14.87
2022-11-14T16:01:26.063Z,14.63
2022-11-14T16:06:50.199Z,12.93
2022-11-14T16:12:12.493Z,13.50
2022-11-14T16:17:38.092Z,14.48
2022-11-14T16:23:01.502Z,14.52
2022-11-14T16:28:23.376Z,14.43
2022-11-14T16:33:45.198Z,13.23
2022-11-14T16:39:11.508Z,13.02
2022-11-14T16:44:40.949Z,13.85
2022-11-14T16:50:05.781Z,14.50
2022-11-14T16:55:29.483Z,14.60
2022-11-14T17:00:51.226Z,15.20
2022-11-14T17:06:13.159Z,14.13
2022-11-14T17:11:36.205Z,14.48
2022-11-14T17:17:04.083Z,15.65
2022-11-14T17:22:26.191Z,15.43
2022-11-14T17:27:49.934Z,15.13
2022-11-14T17:33:12.066Z,14.70
2022-11-14T17:38:34.530Z,15.55
2022-11-14T17:44:01.764Z,14.73
2022-11-14T17:49:23.772Z,15.80
2022-11-14T17:54:45.491Z,15.75
2022-11-14T18:00:10.435Z,17.10
2022-11-14T18:05:32.654Z,16.02
2022-11-14T18:10:55.163Z,15.85
2022-11-14T18:16:20.056Z,16.98
2022-11-14T18:21:43.234Z,15.98
2022-11-14T18:27:05.192Z,16.00
2022-11-14T18:32:28.463Z,16.65
2022-11-14T18:37:50.492Z,17.42
2022-11-14T18:43:12.160Z,16.60
2022-11-14T18:48:35.595Z,17.50
2022-11-14T18:53:59.245Z,19.60
2022-11-14T18:59:21.112Z,19.30
2022-11-14T19:04:44.259Z,17.52
2022-11-14T19:10:07.007Z,18.92
2022-11-14T19:15:28.931Z,17.33
2022-11-14T19:20:59.326Z,18.12
2022-11-14T19:26:21.367Z,18.40
2022-11-14T19:31:44.100Z,16.45
2022-11-14T19:37:07.483Z,20.73
2022-11-14T19:42:29.177Z,18.85
2022-11-14T19:47:51.191Z,19.02
2022-11-14T19:53:14.250Z,19.80
2022-11-14T19:58:37.175Z,19.52
2022-11-14T20:04:01.289Z,19.95
2022-11-14T20:09:24.298Z,20.10
2022-11-14T20:14:46.198Z,20.48
2022-11-14T20:20:09.066Z,20.40
2022-11-14T20:25:32.470Z,20.92
2022-11-14T20:30:55.055Z,22.25
2022-11-14T20:36:19.753Z,20.85
2022-11-14T20:41:43.151Z,20.37
2022-11-14T20:47:09.843Z,21.48
2022-11-14T20:52:33.027Z,21.33
2022-11-14T20:57:56.203Z,21.05
2022-11-14T21:03:18.139Z,22.37
2022-11-14T21:08:40.739Z,21.15
2022-11-14T21:14:04.360Z,20.52
2022-11-14T21:19:25.963Z,21.92
2022-11-14T21:24:47.694Z,22.05
2022-11-14T21:30:11.610Z,22.33
2022-11-14T21:35:35.868Z,21.60
2022-11-14T21:40:57.760Z,24.05
2022-11-14T21:46:21.001Z,22.62
2022-11-14T21:51:42.826Z,23.65
2022-11-14T21:57:09.803Z,24.02
2022-11-14T22:02:50.986Z,24.75
2022-11-14T22:08:13.118Z,25.92
2022-11-14T22:13:35.041Z,25.77
2022-11-14T22:19:04.707Z,26.55
2022-11-14T22:24:27.507Z,26.58
2022-11-14T22:29:49.342Z,27.02
2022-11-14T22:35:12.362Z,27.13
2022-11-14T22:40:34.265Z,27.02
2022-11-14T22:45:57.059Z,27.05
2022-11-14T22:51:21.861Z,27.95
2022-11-14T22:56:44.031Z,27.10
2022-11-14T23:02:05.919Z,25.73
2022-11-14T23:07:29.392Z,27.48
2022-11-14T23:12:51.692Z,28.95
2022-11-14T23:18:13.782Z,29.20
2022-11-14T23:23:37.011Z,28.73
2022-11-14T23:28:59.309Z,30.52
2022-11-14T23:34:21.392Z,29.12
2022-11-14T23:39:44.494Z,29.67
2022-11-14T23:45:07.038Z,29.48
2022-11-14T23:50:29.118Z,29.55
2022-11-14T23:55:56.738Z,29.90
